Flight Track Log - Related Links

Times and Time Zones

All times are in EDT time to prevent confusion due to time zone crossing. See the UAL335 flight status page for this flight to view local times or setup timezone preferences in your user account.

Time Position Orientation Groundspeed Altitude Reporting Facility
EDT Latitude Longitude Course Direction KTS MPH feet Rate Location/Type
Sun 12:21:18 PM 39.8000 -104.6667 110° East 195 224 6,900  Level Denver TRACON
Sun 12:21:36 PM 39.7783 -104.6453 143° Southeast 207 238 7,200 1,350 Climbing Denver Center
Sun 12:22:38 PM 39.7611 -104.5600 105° East 256 295 8,700 1,645 Climbing Denver Center
Sun 12:23:40 PM 39.7367 -104.4486 106° East 296 341 10,600 1,597 Climbing Denver Center
Sun 12:24:00 PM 39.6745 -104.0695 117° Southeast  Level FlightAware Approximate
Sun 12:24:42 PM 39.7100 -104.3233 105° East 358 412 12,000  Level Denver Center
Sun 12:25:00 PM 39.6271 -103.9221 116° Southeast  Level FlightAware Approximate
Sun 12:25:44 PM 39.6858 -104.1914 103° East 377 434 14,400  Level Denver Center
Sun 12:26:00 PM 39.5807 -103.7742 110° East  Level FlightAware Approximate
Sun 12:26:47 PM 39.6667 -104.0433 100° East 387 445 16,700  Level Denver Center
Sun 12:27:49 PM 39.6336 -103.9039 107° East 410 472 18,200 1,694 Climbing Denver Center
Sun 12:28:51 PM 39.5778 -103.7564 116° Southeast 422 486 20,200 1,742 Climbing Denver Center
Sun 12:29:53 PM 39.5439 -103.6119 107° East 419 482 21,800 1,452 Climbing Denver Center
Sun 12:30:55 PM 39.5044 -103.4603 109° East 436 502 23,200 1,306 Climbing Denver Center
Sun 12:31:57 PM 39.4631 -103.3061 109° East 448 516 24,500 1,258 Climbing Denver Center
Sun 12:32:59 PM 39.4208 -103.1506 109° East 454 522 25,800 1,210 Climbing Denver Center
Sun 12:34:01 PM 39.3800 -102.9906 108° East 462 532 27,000 1,210 Climbing Denver Center
Sun 12:35:03 PM 39.3289 -102.8033 109° East 470 541 28,300 1,258 Climbing Denver Center
Sun 12:36:05 PM 39.2897 -102.6617 110° East 472 543 29,600 968 Climbing Denver Center
Sun 12:37:07 PM 39.2419 -102.4850 109° East 468 539 30,300 677 Climbing Denver Center
Sun 12:38:09 PM 39.1897 -102.3406 115° Southeast 469 540 31,000 871 Climbing Denver Center
Sun 12:39:11 PM 39.0897 -102.2036 133° Southeast 473 544 32,100 1,161 Climbing Denver Center
Sun 12:40:13 PM 39.0022 -102.0919 135° Southeast 468 539 33,400 1,258 Climbing Denver Center
Sun 12:41:15 PM 38.9028 -101.9625 135° Southeast 458 527 34,700 774 Climbing Denver Center
Sun 12:42:17 PM 38.8175 -101.8550 135° Southeast 450 518 35,000 145 Climbing Denver Center
Sun 12:43:19 PM 38.7189 -101.7297 135° Southeast 448 516 35,000  Level Denver Center
Sun 12:44:21 PM 38.6333 -101.6197 135° Southeast 452 520 35,000  Level Denver Center
Sun 12:45:23 PM 38.5339 -101.4933 135° Southeast 452 520 35,000  Level Denver Center
Sun 12:46:25 PM 38.4483 -101.3856 135° Southeast 452 520 35,000  Level Denver Center
Sun 12:47:27 PM 38.3478 -101.2592 135° Southeast 452 520 35,000  Level Denver Center
Sun 12:48:29 PM 38.2622 -101.1517 135° Southeast 451 519 35,000  Level Denver Center
Sun 12:49:31 PM 38.1633 -101.0286 136° Southeast 444 511 35,000  Level Denver Center
Sun 12:50:33 PM 38.0775 -100.9219 136° Southeast 448 516 35,000  Level Denver Center
Sun 12:51:10 PM 38.0197 -100.8497 135° Southeast 449 517 35,000  Level Kansas City Center
Sun 12:52:12 PM 37.9347 -100.7439 136° Southeast 446 513 35,000  Level Kansas City Center
Sun 12:53:14 PM 37.8336 -100.6167 135° Southeast 450 518 35,000  Level Kansas City Center
Sun 12:54:16 PM 37.7422 -100.4986 134° Southeast 453 521 35,000  Level Kansas City Center
Sun 12:55:18 PM 37.6631 -100.4006 136° Southeast 448 516 35,000  Level Kansas City Center
Sun 12:56:20 PM 37.5653 -100.2769 135° Southeast 444 511 35,000  Level Kansas City Center
Sun 12:57:22 PM 37.4825 -100.1725 135° Southeast 442 509 35,000  Level Kansas City Center
Sun 12:58:24 PM 37.3853 -100.0508 135° Southeast 441 507 35,000  Level Kansas City Center
Sun 12:59:26 PM 37.3019 -99.9461 135° Southeast 441 507 35,000  Level Kansas City Center
Sun 01:00:28 PM 37.2042 -99.8236 135° Southeast 443 510 35,000  Level Kansas City Center
Sun 01:01:30 PM 37.1206 -99.7208 136° Southeast 440 506 35,000  Level Kansas City Center
Sun 01:02:32 PM 37.0233 -99.6014 136° Southeast 444 511 35,000  Level Kansas City Center
Sun 01:03:34 PM 36.9336 -99.4922 136° Southeast 447 514 35,000  Level Kansas City Center
Sun 01:04:36 PM 36.8450 -99.3817 135° Southeast 447 514 35,000  Level Kansas City Center
Sun 01:05:38 PM 36.7561 -99.2725 135° Southeast 447 514 35,000  Level Kansas City Center
Sun 01:06:40 PM 36.6664 -99.1644 136° Southeast 447 514 35,000  Level Kansas City Center
Sun 01:07:42 PM 36.5767 -99.0539 135° Southeast 449 517 35,000  Level Kansas City Center
Sun 01:08:44 PM 36.4867 -98.9447 136° Southeast 448 516 35,000  Level Kansas City Center
Sun 01:09:46 PM 36.3950 -98.8350 136° Southeast 451 519 35,000  Level Kansas City Center
Sun 01:10:48 PM 36.2864 -98.7039 136° Southeast 450 518 35,000  Level Kansas City Center
Sun 01:11:50 PM 36.1953 -98.5958 136° Southeast 449 517 35,000  Level Kansas City Center
Sun 01:12:52 PM 36.1053 -98.4869 136° Southeast 449 517 35,000  Level Kansas City Center
Sun 01:13:54 PM 36.0150 -98.3800 136° Southeast 446 513 35,000  Level Kansas City Center
Sun 01:14:56 PM 35.9247 -98.2725 136° Southeast 448 516 35,000  Level Kansas City Center
Sun 01:15:58 PM 35.8336 -98.1644 136° Southeast 450 518 35,000  Level Kansas City Center
Sun 01:16:54 PM 35.7361 -98.0528 137° Southeast 449 517 35,000  Level Fort Worth Center
Sun 01:17:54 PM 35.6572 -97.9603 136° Southeast 441 507 35,000  Level Fort Worth Center
Sun 01:18:54 PM 35.5639 -97.8525 137° Southeast 447 514 35,000  Level Fort Worth Center
Sun 01:19:54 PM 35.4725 -97.7475 137° Southeast 447 514 35,000  Level Fort Worth Center
Sun 01:20:54 PM 35.3808 -97.6453 138° Southeast 447 514 35,000  Level Fort Worth Center
Sun 01:21:54 PM 35.2914 -97.5306 134° Southeast 452 520 35,000  Level Fort Worth Center
Sun 01:22:54 PM 35.2019 -97.3983 130° Southeast 457 526 35,000  Level Fort Worth Center
Sun 01:23:54 PM 35.1267 -97.3094 136° Southeast 457 526 35,000  Level Fort Worth Center
Sun 01:24:54 PM 35.0264 -97.1728 132° Southeast 463 533 35,000  Level Fort Worth Center
Sun 01:25:54 PM 34.9386 -97.0589 133° Southeast 457 526 35,000  Level Fort Worth Center
Sun 01:26:54 PM 34.8547 -96.9453 132° Southeast 452 520 35,000  Level Fort Worth Center
Sun 01:27:54 PM 34.7667 -96.8322 133° Southeast 452 520 35,000  Level Fort Worth Center
Sun 01:28:54 PM 34.6806 -96.7167 132° Southeast 452 520 35,000  Level Fort Worth Center
Sun 01:29:54 PM 34.5922 -96.6014 133° Southeast 452 520 35,000  Level Fort Worth Center
Sun 01:30:54 PM 34.5039 -96.4886 134° Southeast 452 520 35,000  Level Fort Worth Center
Sun 01:31:54 PM 34.4153 -96.3739 133° Southeast 452 520 35,000  Level Fort Worth Center
Sun 01:32:54 PM 34.3289 -96.2617 133° Southeast 452 520 35,000  Level Fort Worth Center
Sun 01:33:54 PM 34.2400 -96.1497 134° Southeast 452 520 35,000  Level Fort Worth Center
Sun 01:34:54 PM 34.1511 -96.0383 134° Southeast 452 520 35,000  Level Fort Worth Center
Sun 01:35:54 PM 34.0792 -95.9339 130° Southeast 452 520 35,000  Level Fort Worth Center
Sun 01:36:54 PM 33.9922 -95.8228 133° Southeast 452 520 35,000  Level Fort Worth Center
Sun 01:37:54 PM 33.8989 -95.7069 134° Southeast 465 535 35,000  Level Fort Worth Center
Sun 01:38:54 PM 33.8117 -95.5936 133° Southeast 465 535 35,000  Level Fort Worth Center
Sun 01:39:54 PM 33.7119 -95.4758 135° Southeast 465 535 35,000 500 Level Fort Worth Center
Sun 01:40:54 PM 33.6267 -95.3628 132° Southeast 465 535 36,000 800 Climbing Fort Worth Center
Sun 01:41:54 PM 33.5369 -95.2528 134° Southeast 465 535 36,600 500 Climbing Fort Worth Center
Sun 01:42:54 PM 33.4494 -95.1406 133° Southeast 458 527 37,000 200 Climbing Fort Worth Center
Sun 01:43:54 PM 33.3578 -95.0308 135° Southeast 463 533 37,000  Level Fort Worth Center
Sun 01:44:54 PM 33.2678 -94.9192 134° Southeast 463 533 37,000  Level Fort Worth Center
Sun 01:45:54 PM 33.1758 -94.8025 133° Southeast 470 541 37,000  Level Fort Worth Center
Sun 01:46:54 PM 33.0858 -94.6936 135° Southeast 470 541 37,000  Level Fort Worth Center
Sun 01:47:54 PM 32.9956 -94.5800 133° Southeast 470 541 37,000  Level Fort Worth Center
Sun 01:48:54 PM 32.9033 -94.4667 134° Southeast 470 541 37,000  Level Fort Worth Center
Sun 01:49:54 PM 32.8108 -94.3558 135° Southeast 470 541 37,000  Level Fort Worth Center
Sun 01:50:54 PM 32.7183 -94.2381 133° Southeast 476 548 37,000  Level Fort Worth Center
Sun 01:51:54 PM 32.6256 -94.1256 134° Southeast 476 548 37,000  Level Fort Worth Center
Sun 01:52:54 PM 32.5328 -94.0131 134° Southeast 476 548 37,000  Level Fort Worth Center
Sun 01:53:54 PM 32.4419 -93.9008 134° Southeast 476 548 37,000  Level Fort Worth Center
Sun 01:54:54 PM 32.3492 -93.7886 134° Southeast 476 548 37,000  Level Fort Worth Center
Sun 01:57:15 PM 32.1358 -93.5350 135° Southeast 476 548 37,000  Level Houston Center
Sun 01:58:17 PM 32.0419 -93.4228 135° Southeast 479 551 37,000  Level Houston Center
Sun 01:59:19 PM 31.9489 -93.3119 135° Southeast 479 551 37,000  Level Houston Center
Sun 02:00:21 PM 31.8547 -93.2025 135° Southeast 477 549 37,000 -48 Level Houston Center
Sun 02:01:23 PM 31.7519 -93.0792 134° Southeast 477 549 36,900 -48 Descending Houston Center
Sun 02:02:25 PM 31.6558 -92.9669 135° Southeast 484 557 36,900 48 Level Houston Center
Sun 02:03:28 PM 31.5619 -92.8581 135° Southeast 479 551 37,000  Climbing Houston Center
Sun 02:04:30 PM 31.4672 -92.7461 135° Southeast 479 551 36,900  Descending Houston Center
Sun 02:05:32 PM 31.3533 -92.6142 135° Southeast 482 555 37,000 48 Climbing Houston Center
Sun 02:06:34 PM 31.2558 -92.5003 135° Southeast 492 566 37,000 -48 Level Houston Center
Sun 02:07:36 PM 31.1589 -92.3856 135° Southeast 495 570 36,900 -48 Descending Houston Center
Sun 02:08:38 PM 31.0631 -92.2719 135° Southeast 491 565 36,900 48 Level Houston Center
Sun 02:09:40 PM 30.9681 -92.1589 134° Southeast 497 572 37,000 48 Climbing Houston Center
Sun 02:10:42 PM 30.8519 -92.0217 135° Southeast 497 572 37,000  Level Houston Center
Sun 02:11:44 PM 30.7542 -91.9069 135° Southeast 500 575 37,000  Level Houston Center
Sun 02:12:47 PM 30.6567 -91.7925 135° Southeast 500 575 37,000  Level Houston Center
Sun 02:13:49 PM 30.5592 -91.6792 135° Southeast 497 572 37,000 -48 Level Houston Center
Sun 02:14:51 PM 30.4539 -91.5558 135° Southeast 497 572 36,900  Descending Houston Center
Sun 02:15:53 PM 30.3567 -91.4433 135° Southeast 496 571 37,000  Climbing Houston Center
Sun 02:16:55 PM 30.2589 -91.3311 135° Southeast 494 568 36,900 -48 Descending Houston Center
Sun 02:17:57 PM 30.1611 -91.2178 135° Southeast 498 573 36,900  Level Houston Center
Sun 02:18:59 PM 30.0533 -91.0681 130° Southeast 514 592 36,900  Level Houston Center
Sun 02:20:01 PM 29.9839 -90.9217 119° Southeast 522 601 36,900 48 Level Houston Center
Sun 02:21:04 PM 29.9119 -90.7753 120° Southeast 525 604 37,000 48 Climbing Houston Center
Sun 02:22:06 PM 29.8419 -90.6294 119° Southeast 526 605 37,000  Level Houston Center
Sun 02:23:08 PM 29.7700 -90.4819 119° Southeast 530 610 37,000  Level Houston Center
Sun 02:24:10 PM 29.6847 -90.3081 119° Southeast 526 605 37,000 -48 Level Houston Center
Sun 02:25:12 PM 29.6133 -90.1639 120° Southeast 523 602 36,900  Descending Houston Center
Sun 02:26:14 PM 29.5417 -90.0194 120° Southeast 523 602 37,000  Climbing Houston Center
Sun 02:27:16 PM 29.4708 -89.8758 120° Southeast 521 600 36,900 -48 Descending Houston Center
Sun 02:28:18 PM 29.3986 -89.7331 120° Southeast 521 600 36,900  Level Houston Center
Sun 02:29:20 PM 29.3150 -89.5589 119° Southeast 522 601 36,900  Level Houston Center
Sun 02:30:23 PM 29.2442 -89.4125 119° Southeast 526 605 36,900 48 Level Houston Center
Sun 02:31:25 PM 29.1708 -89.2708 121° Southeast 521 600 37,000 48 Climbing Houston Center
Sun 02:32:27 PM 29.1022 -89.1250 118° Southeast 522 601 37,000  Level Houston Center
Sun 02:33:30 PM 29.0556 -88.9675 109° East 524 603 37,000 -48 Level Houston Center
Sun 02:34:31 PM 29.0094 -88.8117 109° East 522 601 36,900  Descending Houston Center
Sun 02:35:33 PM 28.9533 -88.6256 109° East 520 598 37,000 48 Climbing Houston Center
Sun 02:36:35 PM 28.9069 -88.4731 109° East 514 592 37,000 -48 Level Houston Center
Sun 02:37:37 PM 28.8608 -88.3217 109° East 508 585 36,900 -48 Descending Houston Center
Sun 02:38:40 PM 28.8150 -88.1714 109° East 505 581 36,900  Level Houston Center
Sun 02:39:42 PM 28.7664 -88.0122 109° East 503 579 36,900 48 Level Houston Center
Sun 02:40:44 PM 28.7353 -87.8561 103° East 506 582 37,000 48 Climbing Houston Center
Sun 02:41:46 PM 28.7106 -87.7000 100° East 505 581 37,000  Level Houston Center
Sun 02:42:48 PM 28.6811 -87.5144 100° East 499 574 37,000 -48 Level Houston Center
Sun 02:43:50 PM 28.6556 -87.3586 101° East 500 575 36,900  Descending Houston Center
Sun 02:44:16 PM 28.6481 -87.3064 99° East 491 565 37,000  Climbing Jacksonville Center
Sun 02:45:16 PM 28.6219 -87.1517 101° East 491 565 36,900 -50 Descending Jacksonville Center
Sun 02:46:16 PM 28.5975 -86.9992 100° East 484 557 36,900  Level Jacksonville Center
Sun 02:47:16 PM 28.5750 -86.8542 100° East 484 557 36,900 50 Level Jacksonville Center
Sun 02:48:16 PM 28.5506 -86.7019 100° East 492 566 37,000 50 Climbing Jacksonville Center
Sun 02:49:16 PM 28.5236 -86.5475 101° East 487 560 37,000 -600 Level Jacksonville Center
Sun 02:50:16 PM 28.4964 -86.3978 102° East 481 554 35,800 -1,050 Descending Jacksonville Center
Sun 02:51:16 PM 28.4753 -86.2553 100° East 475 547 34,900 -400 Descending Jacksonville Center
Sun 02:52:16 PM 28.4497 -86.1106 101° East 469 540 35,000  Climbing Jacksonville Center
Sun 02:53:16 PM 28.4261 -85.9681 101° East 464 534 34,900 -600 Descending Jacksonville Center
Sun 02:54:16 PM 28.4022 -85.8328 101° East 447 514 33,800 -1,500 Descending Jacksonville Center
Sun 02:55:16 PM 28.3781 -85.6931 101° East 447 514 31,900 -1,450 Descending Jacksonville Center
Sun 02:56:16 PM 28.3519 -85.5531 102° East 454 522 30,900 -850 Descending Jacksonville Center
Sun 02:57:16 PM 28.3278 -85.4064 101° East 454 522 30,200 -850 Descending Jacksonville Center
Sun 02:58:16 PM 28.3053 -85.2689 100° East 449 517 29,200 -1,006 Descending Jacksonville Center
Sun 02:59:51 PM 28.2653 -85.0417 101° East 442 509 27,600 -968 Descending Miami Center
Sun 03:00:51 PM 28.2394 -84.9106 103° East 431 496 26,700 -950 Descending Miami Center
Sun 03:01:51 PM 28.2153 -84.7794 102° East 425 489 25,700 -850 Descending Miami Center
Sun 03:02:51 PM 28.1953 -84.6533 100° East 419 482 25,000 -350 Descending Miami Center
Sun 03:03:51 PM 28.1747 -84.5297 101° East 414 476 25,000  Level Miami Center
Sun 03:04:51 PM 28.1483 -84.3983 103° East 414 476 25,000  Level Miami Center
Sun 03:05:51 PM 28.1194 -84.2719 105° East 414 476 25,000 -550 Level Miami Center
Sun 03:06:51 PM 28.0969 -84.1436 101° East 414 476 23,900 -1,500 Descending Miami Center
Sun 03:07:51 PM 28.0781 -84.0200 100° East 414 476 22,000 -1,800 Descending Miami Center
Sun 03:08:51 PM 28.0508 -83.9008 104° East 403 464 20,300 -1,700 Descending Miami Center
Sun 03:09:51 PM 28.0294 -83.7822 102° East 391 450 18,600 -1,650 Descending Miami Center
Sun 03:10:51 PM 28.0097 -83.6706 101° East 373 429 17,000 -1,600 Descending Miami Center
Sun 03:11:51 PM 27.9878 -83.5589 103° East 366 421 15,400 -1,600 Descending Miami Center
Sun 03:12:51 PM 27.9697 -83.4567 101° East 354 407 13,800 -1,550 Descending Miami Center
Sun 03:13:51 PM 27.9514 -83.3547 101° East 341 392 12,300 -1,450 Descending Miami Center
Sun 03:14:51 PM 27.9286 -83.2547 104° East 334 384 10,900 -1,200 Descending Miami Center
Sun 03:15:51 PM 27.9161 -83.1603 98° East 315 362 9,900 -500 Descending Miami Center
Sun 03:16:51 PM 27.9347 -83.0694 77° East 295 339 9,900  Level Miami Center
Sun 03:17:51 PM 27.9572 -82.9817 74° East 295 339 9,900 -800 Level Miami Center
Sun 03:18:51 PM 27.9800 -82.8889 74° East 295 339 8,300 -1,340 Descending Miami Center
Sun 03:19:25 PM 28.0000 -82.8333 68° East 297 342 7,800 -830 Descending Tampa TRACON
Sun 03:20:25 PM 28.0167 -82.7500 77° East 285 328 7,000 -850 Descending Tampa TRACON
Sun 03:21:25 PM 28.0500 -82.6667 66° East 276 318 6,100 -700 Descending Tampa TRACON
Sun 03:22:25 PM 28.0833 -82.6167 53° Northeast 269 310 5,600 -950 Descending Tampa TRACON
Sun 03:23:25 PM 28.1667 -82.6167 360° North 272 313 4,200 -1,300 Descending Tampa TRACON
Sun 03:24:25 PM 28.1833 -82.5667 69° East 211 243 3,000 -810 Descending Tampa TRACON
Sun 03:25:31 PM 28.1500 -82.5333 139° Southeast 174 200 2,500 -455 Descending Tampa TRACON

Login

Don't have an account? Register now (free) for customized features, flight alerts, and more!